Bolton Field (TZR)

 

Airport Diagram
Current Weather/Forecast (VFR Conditions)
METAR KTZR 211450Z 24014G20KT 10SM CLR 02/M02 A2982
TAF

Airport Information

All Charts
General
Chart Name View
AIRPORT DIAGRAM
AIRPORT DIAGRAM
TAKEOFF MINIMUMS
ALTERNATE MINIMUMS
TAKEOFF MINIMUMS
ALTERNATE MINIMUMS

Arrivals
Chart Name Download
BREMN FIVE
BREMN FIVE, CONT.1
GAILL THREE (RNAV)
GUNNE FOUR
GUNNE FOUR, CONT.1
BREMN FIVE
BREMN FIVE, CONT.1
GAILL THREE (RNAV)
GUNNE FOUR
GUNNE FOUR, CONT.1

Approaches
Chart Name Download
ILS OR LOC RWY 04
RNAV (GPS) RWY 04
RNAV (GPS) RWY 22
NDB RWY 04
ILS OR LOC RWY 04
RNAV (GPS) RWY 04
RNAV (GPS) RWY 22
NDB RWY 04


Airport Statistics
Departures Arrivals Local
All Collected Stats since June 2016: 24 10 0
2021 Stats: 0 0 0
January Stats: 0 0 0

Inbound Traffic (Arrivals) - 0

No inbound traffic.


Outbound Traffic (Departures) - 0

No outbound traffic.


Local Traffic (Pattern) - 0

No local traffic.